sensor_id;sensor_type;location;lat;lon;timestamp;temperature;humidity
3542;DHT22;1785;47.388;8.538;2022-12-07T00:01:11;5.60;99.90
3542;DHT22;1785;47.388;8.538;2022-12-07T00:03:39;5.20;99.90
3542;DHT22;1785;47.388;8.538;2022-12-07T00:06:07;5.20;99.90
3542;DHT22;1785;47.388;8.538;2022-12-07T00:08:35;5.10;99.90
3542;DHT22;1785;47.388;8.538;2022-12-07T00:11:02;4.80;99.90
3542;DHT22;1785;47.388;8.538;2022-12-07T00:13:29;4.80;99.90
3542;DHT22;1785;47.388;8.538;2022-12-07T00:15:59;4.90;99.90
3542;DHT22;1785;47.388;8.538;2022-12-07T00:18:25;5.00;99.90
3542;DHT22;1785;47.388;8.538;2022-12-07T00:20:52;5.00;99.90
3542;DHT22;1785;47.388;8.538;2022-12-07T00:23:18;5.20;99.90
3542;DHT22;1785;47.388;8.538;2022-12-07T00:25:45;5.10;99.90
3542;DHT22;1785;47.388;8.538;2022-12-07T00:28:11;5.10;99.90
3542;DHT22;1785;47.388;8.538;2022-12-07T00:30:37;5.30;99.90
3542;DHT22;1785;47.388;8.538;2022-12-07T00:33:04;5.20;99.90
3542;DHT22;1785;47.388;8.538;2022-12-07T00:35:30;5.20;99.90
3542;DHT22;1785;47.388;8.538;2022-12-07T00:37:57;5.40;99.90
3542;DHT22;1785;47.388;8.538;2022-12-07T00:40:23;5.50;99.90
3542;DHT22;1785;47.388;8.538;2022-12-07T00:42:50;5.30;99.90
3542;DHT22;1785;47.388;8.538;2022-12-07T00:45:16;5.10;99.90
3542;DHT22;1785;47.388;8.538;2022-12-07T00:47:42;5.00;99.90
3542;DHT22;1785;47.388;8.538;2022-12-07T00:50:08;5.00;99.90
3542;DHT22;1785;47.388;8.538;2022-12-07T00:52:35;4.90;99.90
3542;DHT22;1785;47.388;8.538;2022-12-07T00:55:02;5.00;99.90
3542;DHT22;1785;47.388;8.538;2022-12-07T00:57:30;5.00;99.90
3542;DHT22;1785;47.388;8.538;2022-12-07T00:59:56;5.10;99.90
3542;DHT22;1785;47.388;8.538;2022-12-07T01:02:23;5.10;99.90
3542;DHT22;1785;47.388;8.538;2022-12-07T01:04:49;5.10;99.90
3542;DHT22;1785;47.388;8.538;2022-12-07T01:07:15;5.30;99.90
3542;DHT22;1785;47.388;8.538;2022-12-07T01:09:42;5.10;99.90
3542;DHT22;1785;47.388;8.538;2022-12-07T01:12:09;5.00;99.90
3542;DHT22;1785;47.388;8.538;2022-12-07T01:14:35;5.00;99.90
3542;DHT22;1785;47.388;8.538;2022-12-07T01:17:01;4.90;99.90
3542;DHT22;1785;47.388;8.538;2022-12-07T01:19:27;4.90;99.90
3542;DHT22;1785;47.388;8.538;2022-12-07T01:21:53;5.00;99.90
3542;DHT22;1785;47.388;8.538;2022-12-07T01:24:19;5.20;99.90
3542;DHT22;1785;47.388;8.538;2022-12-07T01:26:48;5.30;99.90
3542;DHT22;1785;47.388;8.538;2022-12-07T01:29:15;5.30;99.90
3542;DHT22;1785;47.388;8.538;2022-12-07T01:31:41;5.40;99.90
3542;DHT22;1785;47.388;8.538;2022-12-07T01:34:08;5.50;99.90
3542;DHT22;1785;47.388;8.538;2022-12-07T01:36:35;5.80;99.90
3542;DHT22;1785;47.388;8.538;2022-12-07T01:39:04;5.80;99.90
3542;DHT22;1785;47.388;8.538;2022-12-07T01:41:32;5.80;99.90
3542;DHT22;1785;47.388;8.538;2022-12-07T01:44:17;6.00;99.90
3542;DHT22;1785;47.388;8.538;2022-12-07T01:46:45;5.90;99.90
3542;DHT22;1785;47.388;8.538;2022-12-07T01:49:15;6.00;99.90
3542;DHT22;1785;47.388;8.538;2022-12-07T01:51:43;6.10;99.90
3542;DHT22;1785;47.388;8.538;2022-12-07T01:54:11;6.20;99.90
3542;DHT22;1785;47.388;8.538;2022-12-07T01:56:39;6.30;99.90
3542;DHT22;1785;47.388;8.538;2022-12-07T01:59:06;6.30;99.90
3542;DHT22;1785;47.388;8.538;2022-12-07T02:01:34;6.30;99.90
3542;DHT22;1785;47.388;8.538;2022-12-07T02:04:00;5.80;99.90
3542;DHT22;1785;47.388;8.538;2022-12-07T02:06:27;5.60;99.90
3542;DHT22;1785;47.388;8.538;2022-12-07T02:08:54;5.30;99.90
3542;DHT22;1785;47.388;8.538;2022-12-07T02:11:21;5.20;99.90
3542;DHT22;1785;47.388;8.538;2022-12-07T02:13:48;5.00;99.90
3542;DHT22;1785;47.388;8.538;2022-12-07T02:16:25;4.90;99.90
3542;DHT22;1785;47.388;8.538;2022-12-07T02:19:04;4.90;99.90
3542;DHT22;1785;47.388;8.538;2022-12-07T02:21:40;5.10;99.90
3542;DHT22;1785;47.388;8.538;2022-12-07T02:24:25;5.30;99.90
3542;DHT22;1785;47.388;8.538;2022-12-07T02:27:39;5.30;99.90
3542;DHT22;1785;47.388;8.538;2022-12-07T02:30:12;5.10;99.90
3542;DHT22;1785;47.388;8.538;2022-12-07T02:32:46;5.10;99.90
3542;DHT22;1785;47.388;8.538;2022-12-07T02:35:18;5.30;99.90
3542;DHT22;1785;47.388;8.538;2022-12-07T02:37:53;5.40;99.90
3542;DHT22;1785;47.388;8.538;2022-12-07T02:40:25;5.30;99.90
3542;DHT22;1785;47.388;8.538;2022-12-07T02:42:57;5.20;99.90
3542;DHT22;1785;47.388;8.538;2022-12-07T02:45:26;5.10;99.90
3542;DHT22;1785;47.388;8.538;2022-12-07T02:47:56;4.90;99.90
3542;DHT22;1785;47.388;8.538;2022-12-07T02:50:24;4.70;99.90
3542;DHT22;1785;47.388;8.538;2022-12-07T02:52:51;4.80;99.90
3542;DHT22;1785;47.388;8.538;2022-12-07T02:55:20;4.80;99.90
3542;DHT22;1785;47.388;8.538;2022-12-07T02:57:59;4.80;99.90
3542;DHT22;1785;47.388;8.538;2022-12-07T03:00:27;5.00;99.90
3542;DHT22;1785;47.388;8.538;2022-12-07T03:02:59;5.00;99.90
3542;DHT22;1785;47.388;8.538;2022-12-07T03:05:52;4.90;99.90
3542;DHT22;1785;47.388;8.538;2022-12-07T03:08:29;5.10;99.90
3542;DHT22;1785;47.388;8.538;2022-12-07T03:10:59;5.10;99.90
3542;DHT22;1785;47.388;8.538;2022-12-07T03:13:30;5.00;99.90
3542;DHT22;1785;47.388;8.538;2022-12-07T03:16:03;5.20;99.90
3542;DHT22;1785;47.388;8.538;2022-12-07T03:18:34;5.40;99.90
3542;DHT22;1785;47.388;8.538;2022-12-07T03:21:05;5.30;99.90
3542;DHT22;1785;47.388;8.538;2022-12-07T03:23:34;5.30;99.90
3542;DHT22;1785;47.388;8.538;2022-12-07T03:26:03;5.20;99.90
3542;DHT22;1785;47.388;8.538;2022-12-07T03:28:34;5.20;99.90
3542;DHT22;1785;47.388;8.538;2022-12-07T03:31:06;5.40;99.90
3542;DHT22;1785;47.388;8.538;2022-12-07T03:33:39;5.60;99.90
3542;DHT22;1785;47.388;8.538;2022-12-07T03:36:11;5.50;99.90
3542;DHT22;1785;47.388;8.538;2022-12-07T03:38:40;5.50;99.90
3542;DHT22;1785;47.388;8.538;2022-12-07T03:41:14;5.40;99.90
3542;DHT22;1785;47.388;8.538;2022-12-07T03:43:42;5.10;99.90
3542;DHT22;1785;47.388;8.538;2022-12-07T03:46:17;5.40;99.90
3542;DHT22;1785;47.388;8.538;2022-12-07T03:48:49;5.80;99.90
3542;DHT22;1785;47.388;8.538;2022-12-07T03:51:22;5.80;99.90
3542;DHT22;1785;47.388;8.538;2022-12-07T03:53:51;5.70;99.90
3542;DHT22;1785;47.388;8.538;2022-12-07T03:56:18;5.80;99.90
3542;DHT22;1785;47.388;8.538;2022-12-07T03:58:45;5.80;99.90
3542;DHT22;1785;47.388;8.538;2022-12-07T04:01:13;5.60;99.90
3542;DHT22;1785;47.388;8.538;2022-12-07T04:03:39;5.70;99.90
3542;DHT22;1785;47.388;8.538;2022-12-07T04:06:06;5.80;99.90
3542;DHT22;1785;47.388;8.538;2022-12-07T04:08:32;5.80;99.90
3542;DHT22;1785;47.388;8.538;2022-12-07T04:10:58;5.60;99.90
3542;DHT22;1785;47.388;8.538;2022-12-07T04:13:24;5.50;99.90
3542;DHT22;1785;47.388;8.538;2022-12-07T04:15:50;5.50;99.90
3542;DHT22;1785;47.388;8.538;2022-12-07T04:18:17;5.40;99.90
3542;DHT22;1785;47.388;8.538;2022-12-07T04:20:45;5.40;99.90
3542;DHT22;1785;47.388;8.538;2022-12-07T04:23:11;5.50;99.90
3542;DHT22;1785;47.388;8.538;2022-12-07T04:25:38;5.40;99.90
3542;DHT22;1785;47.388;8.538;2022-12-07T04:28:04;5.50;99.90
3542;DHT22;1785;47.388;8.538;2022-12-07T04:30:30;5.40;99.90
3542;DHT22;1785;47.388;8.538;2022-12-07T04:32:56;5.60;99.90
3542;DHT22;1785;47.388;8.538;2022-12-07T04:35:24;5.40;99.90
3542;DHT22;1785;47.388;8.538;2022-12-07T04:37:50;5.50;99.90
3542;DHT22;1785;47.388;8.538;2022-12-07T04:40:17;5.60;99.90
3542;DHT22;1785;47.388;8.538;2022-12-07T04:42:43;5.60;99.90
3542;DHT22;1785;47.388;8.538;2022-12-07T04:45:10;5.40;99.90
3542;DHT22;1785;47.388;8.538;2022-12-07T04:47:36;5.10;99.90
3542;DHT22;1785;47.388;8.538;2022-12-07T04:50:03;5.00;99.90
3542;DHT22;1785;47.388;8.538;2022-12-07T04:52:30;5.10;99.90
3542;DHT22;1785;47.388;8.538;2022-12-07T04:54:56;5.40;99.90
3542;DHT22;1785;47.388;8.538;2022-12-07T04:57:22;5.30;99.90
3542;DHT22;1785;47.388;8.538;2022-12-07T04:59:48;5.30;99.90
3542;DHT22;1785;47.388;8.538;2022-12-07T05:02:15;5.30;99.90
3542;DHT22;1785;47.388;8.538;2022-12-07T05:04:41;5.30;99.90
3542;DHT22;1785;47.388;8.538;2022-12-07T05:07:07;5.60;99.90
3542;DHT22;1785;47.388;8.538;2022-12-07T05:09:34;5.70;99.90
3542;DHT22;1785;47.388;8.538;2022-12-07T05:12:00;5.60;99.90
3542;DHT22;1785;47.388;8.538;2022-12-07T05:14:27;5.40;99.90
3542;DHT22;1785;47.388;8.538;2022-12-07T05:16:53;5.50;99.90
3542;DHT22;1785;47.388;8.538;2022-12-07T05:19:19;5.30;99.90
3542;DHT22;1785;47.388;8.538;2022-12-07T05:21:46;5.30;99.90
3542;DHT22;1785;47.388;8.538;2022-12-07T05:24:14;5.60;99.90
3542;DHT22;1785;47.388;8.538;2022-12-07T05:26:41;5.80;99.90
3542;DHT22;1785;47.388;8.538;2022-12-07T05:29:11;5.90;99.90
3542;DHT22;1785;47.388;8.538;2022-12-07T05:31:37;6.10;99.90
3542;DHT22;1785;47.388;8.538;2022-12-07T05:34:04;6.00;99.90
3542;DHT22;1785;47.388;8.538;2022-12-07T05:36:30;5.80;99.90
3542;DHT22;1785;47.388;8.538;2022-12-07T05:38:57;5.70;99.90
3542;DHT22;1785;47.388;8.538;2022-12-07T05:41:24;5.70;99.90
3542;DHT22;1785;47.388;8.538;2022-12-07T05:44:14;5.70;99.90
3542;DHT22;1785;47.388;8.538;2022-12-07T05:46:41;5.80;99.90
3542;DHT22;1785;47.388;8.538;2022-12-07T05:49:07;5.70;99.90
3542;DHT22;1785;47.388;8.538;2022-12-07T05:51:33;5.60;99.90
3542;DHT22;1785;47.388;8.538;2022-12-07T05:54:00;5.50;99.90
3542;DHT22;1785;47.388;8.538;2022-12-07T05:56:26;5.80;99.90
3542;DHT22;1785;47.388;8.538;2022-12-07T05:58:52;6.20;99.90
3542;DHT22;1785;47.388;8.538;2022-12-07T06:01:37;6.30;99.90
3542;DHT22;1785;47.388;8.538;2022-12-07T06:04:04;6.30;99.90
3542;DHT22;1785;47.388;8.538;2022-12-07T06:06:30;6.30;99.90
3542;DHT22;1785;47.388;8.538;2022-12-07T06:08:57;6.40;99.90
3542;DHT22;1785;47.388;8.538;2022-12-07T06:11:23;6.50;99.90
3542;DHT22;1785;47.388;8.538;2022-12-07T06:14:08;6.60;99.90
3542;DHT22;1785;47.388;8.538;2022-12-07T06:16:34;6.30;99.90
3542;DHT22;1785;47.388;8.538;2022-12-07T06:19:01;6.00;99.90
3542;DHT22;1785;47.388;8.538;2022-12-07T06:21:27;6.10;99.90
3542;DHT22;1785;47.388;8.538;2022-12-07T06:23:53;6.10;99.90
3542;DHT22;1785;47.388;8.538;2022-12-07T06:26:20;5.90;99.90
3542;DHT22;1785;47.388;8.538;2022-12-07T06:28:46;5.90;99.90
3542;DHT22;1785;47.388;8.538;2022-12-07T06:31:14;6.20;99.90
3542;DHT22;1785;47.388;8.538;2022-12-07T06:33:40;6.40;99.90
3542;DHT22;1785;47.388;8.538;2022-12-07T06:36:07;6.10;99.90
3542;DHT22;1785;47.388;8.538;2022-12-07T06:38:34;6.00;99.90
3542;DHT22;1785;47.388;8.538;2022-12-07T06:41:00;5.90;99.90
3542;DHT22;1785;47.388;8.538;2022-12-07T06:43:27;6.00;99.90
3542;DHT22;1785;47.388;8.538;2022-12-07T06:45:53;6.00;99.90
3542;DHT22;1785;47.388;8.538;2022-12-07T06:48:19;5.90;99.90
3542;DHT22;1785;47.388;8.538;2022-12-07T06:50:46;5.60;99.90
3542;DHT22;1785;47.388;8.538;2022-12-07T06:53:13;5.40;99.90
3542;DHT22;1785;47.388;8.538;2022-12-07T06:55:40;5.40;99.90
3542;DHT22;1785;47.388;8.538;2022-12-07T06:58:07;5.60;99.90
3542;DHT22;1785;47.388;8.538;2022-12-07T07:00:34;5.90;99.90
3542;DHT22;1785;47.388;8.538;2022-12-07T07:03:00;5.70;99.90
3542;DHT22;1785;47.388;8.538;2022-12-07T07:05:26;5.60;99.90
3542;DHT22;1785;47.388;8.538;2022-12-07T07:07:53;5.80;99.90
3542;DHT22;1785;47.388;8.538;2022-12-07T07:10:20;5.80;99.90
3542;DHT22;1785;47.388;8.538;2022-12-07T07:12:47;5.70;99.90
3542;DHT22;1785;47.388;8.538;2022-12-07T07:15:14;5.70;99.90
3542;DHT22;1785;47.388;8.538;2022-12-07T07:17:40;5.60;99.90
3542;DHT22;1785;47.388;8.538;2022-12-07T07:20:07;5.50;99.90
3542;DHT22;1785;47.388;8.538;2022-12-07T07:22:34;5.50;99.90
3542;DHT22;1785;47.388;8.538;2022-12-07T07:25:00;5.80;99.90
3542;DHT22;1785;47.388;8.538;2022-12-07T07:27:27;5.90;99.90
3542;DHT22;1785;47.388;8.538;2022-12-07T07:29:54;6.00;99.90
3542;DHT22;1785;47.388;8.538;2022-12-07T07:32:20;5.90;99.90
3542;DHT22;1785;47.388;8.538;2022-12-07T07:34:47;5.90;99.90
3542;DHT22;1785;47.388;8.538;2022-12-07T07:37:13;5.90;99.90
3542;DHT22;1785;47.388;8.538;2022-12-07T07:39:40;5.70;99.90
3542;DHT22;1785;47.388;8.538;2022-12-07T07:42:07;5.40;99.90
3542;DHT22;1785;47.388;8.538;2022-12-07T07:44:34;5.30;99.90
3542;DHT22;1785;47.388;8.538;2022-12-07T07:47:00;5.50;99.90
3542;DHT22;1785;47.388;8.538;2022-12-07T07:49:27;5.60;99.90
3542;DHT22;1785;47.388;8.538;2022-12-07T07:51:53;5.50;99.90
3542;DHT22;1785;47.388;8.538;2022-12-07T07:54:20;5.50;99.90
3542;DHT22;1785;47.388;8.538;2022-12-07T07:56:46;5.40;99.90
3542;DHT22;1785;47.388;8.538;2022-12-07T07:59:12;6.70;99.90
3542;DHT22;1785;47.388;8.538;2022-12-07T08:01:40;6.90;99.90
3542;DHT22;1785;47.388;8.538;2022-12-07T08:04:07;6.40;99.90
3542;DHT22;1785;47.388;8.538;2022-12-07T08:06:34;5.80;99.90
3542;DHT22;1785;47.388;8.538;2022-12-07T08:09:01;5.50;99.90
3542;DHT22;1785;47.388;8.538;2022-12-07T08:11:27;5.30;99.90
3542;DHT22;1785;47.388;8.538;2022-12-07T08:13:54;5.20;99.90
3542;DHT22;1785;47.388;8.538;2022-12-07T08:16:21;4.90;99.90
3542;DHT22;1785;47.388;8.538;2022-12-07T08:18:48;4.70;99.90
3542;DHT22;1785;47.388;8.538;2022-12-07T08:21:15;4.60;99.90
3542;DHT22;1785;47.388;8.538;2022-12-07T08:23:42;4.50;99.90
3542;DHT22;1785;47.388;8.538;2022-12-07T08:26:10;4.70;99.90
3542;DHT22;1785;47.388;8.538;2022-12-07T08:28:36;5.10;99.90
3542;DHT22;1785;47.388;8.538;2022-12-07T08:31:04;5.30;99.90
3542;DHT22;1785;47.388;8.538;2022-12-07T08:33:31;5.30;99.90
3542;DHT22;1785;47.388;8.538;2022-12-07T08:36:01;5.10;99.90
3542;DHT22;1785;47.388;8.538;2022-12-07T08:38:27;5.00;99.90
3542;DHT22;1785;47.388;8.538;2022-12-07T08:40:54;4.90;99.90
3542;DHT22;1785;47.388;8.538;2022-12-07T08:43:21;4.90;99.90
3542;DHT22;1785;47.388;8.538;2022-12-07T08:45:51;5.00;99.90
3542;DHT22;1785;47.388;8.538;2022-12-07T08:48:20;4.80;99.90
3542;DHT22;1785;47.388;8.538;2022-12-07T08:50:50;4.90;99.90
3542;DHT22;1785;47.388;8.538;2022-12-07T08:53:17;4.90;99.90
3542;DHT22;1785;47.388;8.538;2022-12-07T08:55:44;4.80;99.90
3542;DHT22;1785;47.388;8.538;2022-12-07T08:58:10;4.70;99.90
3542;DHT22;1785;47.388;8.538;2022-12-07T09:00:37;4.70;99.90
3542;DHT22;1785;47.388;8.538;2022-12-07T09:03:04;4.50;99.90
3542;DHT22;1785;47.388;8.538;2022-12-07T09:05:32;4.40;99.90
3542;DHT22;1785;47.388;8.538;2022-12-07T09:08:00;4.50;99.90
3542;DHT22;1785;47.388;8.538;2022-12-07T09:10:28;4.90;99.90
3542;DHT22;1785;47.388;8.538;2022-12-07T09:12:54;5.00;99.90
3542;DHT22;1785;47.388;8.538;2022-12-07T09:15:21;5.00;99.90
3542;DHT22;1785;47.388;8.538;2022-12-07T09:17:47;5.00;99.90
3542;DHT22;1785;47.388;8.538;2022-12-07T09:20:13;5.20;99.90
3542;DHT22;1785;47.388;8.538;2022-12-07T09:22:39;5.30;99.90
3542;DHT22;1785;47.388;8.538;2022-12-07T09:25:06;5.60;99.90
3542;DHT22;1785;47.388;8.538;2022-12-07T09:27:33;5.80;99.90
3542;DHT22;1785;47.388;8.538;2022-12-07T09:29:59;6.00;99.90
3542;DHT22;1785;47.388;8.538;2022-12-07T09:32:26;6.00;99.90
3542;DHT22;1785;47.388;8.538;2022-12-07T09:34:52;6.20;99.90
3542;DHT22;1785;47.388;8.538;2022-12-07T09:37:18;5.90;99.90
3542;DHT22;1785;47.388;8.538;2022-12-07T09:39:45;5.80;99.90
3542;DHT22;1785;47.388;8.538;2022-12-07T09:42:25;5.50;99.90
3542;DHT22;1785;47.388;8.538;2022-12-07T09:44:53;5.60;99.90
3542;DHT22;1785;47.388;8.538;2022-12-07T09:47:20;5.50;99.90
3542;DHT22;1785;47.388;8.538;2022-12-07T09:49:46;5.50;99.90
3542;DHT22;1785;47.388;8.538;2022-12-07T09:52:19;5.40;99.90
3542;DHT22;1785;47.388;8.538;2022-12-07T09:54:47;5.60;99.90
3542;DHT22;1785;47.388;8.538;2022-12-07T09:57:14;5.60;99.90
3542;DHT22;1785;47.388;8.538;2022-12-07T09:59:41;5.70;99.90
3542;DHT22;1785;47.388;8.538;2022-12-07T10:02:28;5.40;99.90
3542;DHT22;1785;47.388;8.538;2022-12-07T10:04:59;5.30;99.90
3542;DHT22;1785;47.388;8.538;2022-12-07T10:07:26;5.10;99.90
3542;DHT22;1785;47.388;8.538;2022-12-07T10:09:52;5.40;99.90
3542;DHT22;1785;47.388;8.538;2022-12-07T10:12:18;5.50;99.90
3542;DHT22;1785;47.388;8.538;2022-12-07T10:14:54;5.60;99.90
3542;DHT22;1785;47.388;8.538;2022-12-07T10:17:34;5.80;99.90
3542;DHT22;1785;47.388;8.538;2022-12-07T10:20:16;5.80;99.90
3542;DHT22;1785;47.388;8.538;2022-12-07T10:23:01;5.80;99.90
3542;DHT22;1785;47.388;8.538;2022-12-07T10:25:30;5.80;99.90
3542;DHT22;1785;47.388;8.538;2022-12-07T10:28:00;5.80;99.90
3542;DHT22;1785;47.388;8.538;2022-12-07T10:30:27;5.80;99.90
3542;DHT22;1785;47.388;8.538;2022-12-07T10:32:54;5.90;99.90
3542;DHT22;1785;47.388;8.538;2022-12-07T10:35:24;5.80;99.90
3542;DHT22;1785;47.388;8.538;2022-12-07T10:37:51;6.00;99.90
3542;DHT22;1785;47.388;8.538;2022-12-07T10:40:30;6.00;99.90
3542;DHT22;1785;47.388;8.538;2022-12-07T10:43:02;5.80;99.90
3542;DHT22;1785;47.388;8.538;2022-12-07T10:45:28;5.80;99.90
3542;DHT22;1785;47.388;8.538;2022-12-07T10:48:01;5.80;99.90
3542;DHT22;1785;47.388;8.538;2022-12-07T10:50:47;5.70;99.90
3542;DHT22;1785;47.388;8.538;2022-12-07T10:53:43;5.80;99.90
3542;DHT22;1785;47.388;8.538;2022-12-07T10:56:29;5.70;99.90
3542;DHT22;1785;47.388;8.538;2022-12-07T10:59:21;5.80;99.90
3542;DHT22;1785;47.388;8.538;2022-12-07T11:01:57;5.90;99.90
3542;DHT22;1785;47.388;8.538;2022-12-07T11:04:34;5.80;99.90
3542;DHT22;1785;47.388;8.538;2022-12-07T11:07:10;5.60;99.90
3542;DHT22;1785;47.388;8.538;2022-12-07T11:09:55;5.80;99.90
3542;DHT22;1785;47.388;8.538;2022-12-07T11:12:32;5.70;99.90
3542;DHT22;1785;47.388;8.538;2022-12-07T11:15:04;5.70;99.90
3542;DHT22;1785;47.388;8.538;2022-12-07T11:17:40;5.40;99.90
3542;DHT22;1785;47.388;8.538;2022-12-07T11:20:29;5.60;99.90
3542;DHT22;1785;47.388;8.538;2022-12-07T11:23:08;5.80;99.90
3542;DHT22;1785;47.388;8.538;2022-12-07T11:25:43;6.10;99.90
3542;DHT22;1785;47.388;8.538;2022-12-07T11:28:25;5.80;99.90
3542;DHT22;1785;47.388;8.538;2022-12-07T11:30:59;5.20;99.90
3542;DHT22;1785;47.388;8.538;2022-12-07T11:33:35;5.00;99.90
3542;DHT22;1785;47.388;8.538;2022-12-07T11:36:17;5.40;99.90
3542;DHT22;1785;47.388;8.538;2022-12-07T11:38:49;5.80;99.90
3542;DHT22;1785;47.388;8.538;2022-12-07T11:41:22;6.00;99.90
3542;DHT22;1785;47.388;8.538;2022-12-07T11:43:55;6.10;99.90
3542;DHT22;1785;47.388;8.538;2022-12-07T11:46:26;5.70;99.90
3542;DHT22;1785;47.388;8.538;2022-12-07T11:49:03;5.50;99.90
3542;DHT22;1785;47.388;8.538;2022-12-07T11:51:37;5.50;99.90
3542;DHT22;1785;47.388;8.538;2022-12-07T11:54:12;5.90;99.90
3542;DHT22;1785;47.388;8.538;2022-12-07T11:56:40;7.40;99.90
3542;DHT22;1785;47.388;8.538;2022-12-07T11:59:11;8.40;99.90
3542;DHT22;1785;47.388;8.538;2022-12-07T12:01:48;8.80;99.90
3542;DHT22;1785;47.388;8.538;2022-12-07T12:04:27;8.60;99.90
3542;DHT22;1785;47.388;8.538;2022-12-07T12:06:54;8.80;99.90
3542;DHT22;1785;47.388;8.538;2022-12-07T12:09:26;8.00;99.90
3542;DHT22;1785;47.388;8.538;2022-12-07T12:12:17;7.50;99.90
3542;DHT22;1785;47.388;8.538;2022-12-07T12:14:56;7.00;99.90
3542;DHT22;1785;47.388;8.538;2022-12-07T12:17:57;7.20;99.90
3542;DHT22;1785;47.388;8.538;2022-12-07T12:20:30;6.70;99.90
3542;DHT22;1785;47.388;8.538;2022-12-07T12:23:04;6.10;99.90
3542;DHT22;1785;47.388;8.538;2022-12-07T12:25:37;6.20;99.90
3542;DHT22;1785;47.388;8.538;2022-12-07T12:28:05;6.30;99.90
3542;DHT22;1785;47.388;8.538;2022-12-07T12:30:35;6.10;99.90
3542;DHT22;1785;47.388;8.538;2022-12-07T12:33:13;5.90;99.90
3542;DHT22;1785;47.388;8.538;2022-12-07T12:35:40;5.90;99.90
3542;DHT22;1785;47.388;8.538;2022-12-07T12:38:48;6.10;99.90
3542;DHT22;1785;47.388;8.538;2022-12-07T12:45:18;6.40;99.90
3542;DHT22;1785;47.388;8.538;2022-12-07T12:47:56;6.80;99.90
3542;DHT22;1785;47.388;8.538;2022-12-07T12:50:26;6.90;99.90
3542;DHT22;1785;47.388;8.538;2022-12-07T12:53:15;6.80;99.90
3542;DHT22;1785;47.388;8.538;2022-12-07T12:56:11;6.80;99.90
3542;DHT22;1785;47.388;8.538;2022-12-07T12:58:43;6.60;99.90
3542;DHT22;1785;47.388;8.538;2022-12-07T13:01:38;6.80;99.90
3542;DHT22;1785;47.388;8.538;2022-12-07T13:04:24;7.10;99.90
3542;DHT22;1785;47.388;8.538;2022-12-07T13:06:51;7.20;99.90
3542;DHT22;1785;47.388;8.538;2022-12-07T13:09:21;7.40;99.90
3542;DHT22;1785;47.388;8.538;2022-12-07T13:11:54;7.40;99.90
3542;DHT22;1785;47.388;8.538;2022-12-07T13:17:56;7.60;99.90
3542;DHT22;1785;47.388;8.538;2022-12-07T13:20:56;7.80;99.90
3542;DHT22;1785;47.388;8.538;2022-12-07T13:23:30;7.80;99.90
3542;DHT22;1785;47.388;8.538;2022-12-07T13:26:14;7.80;99.90
3542;DHT22;1785;47.388;8.538;2022-12-07T13:28:45;7.70;99.90
3542;DHT22;1785;47.388;8.538;2022-12-07T13:34:28;7.80;99.90
3542;DHT22;1785;47.388;8.538;2022-12-07T13:36:54;7.90;99.90
3542;DHT22;1785;47.388;8.538;2022-12-07T13:39:23;7.80;99.90
3542;DHT22;1785;47.388;8.538;2022-12-07T13:41:52;7.70;99.90
3542;DHT22;1785;47.388;8.538;2022-12-07T13:44:20;7.70;99.90
3542;DHT22;1785;47.388;8.538;2022-12-07T13:46:55;8.00;99.90
3542;DHT22;1785;47.388;8.538;2022-12-07T13:49:25;9.20;99.90
3542;DHT22;1785;47.388;8.538;2022-12-07T13:51:53;9.80;99.90
3542;DHT22;1785;47.388;8.538;2022-12-07T13:54:20;9.70;99.90
3542;DHT22;1785;47.388;8.538;2022-12-07T13:56:51;9.20;99.90
3542;DHT22;1785;47.388;8.538;2022-12-07T13:59:20;8.80;99.90
3542;DHT22;1785;47.388;8.538;2022-12-07T14:01:49;8.50;99.90
3542;DHT22;1785;47.388;8.538;2022-12-07T14:04:30;8.30;99.90
3542;DHT22;1785;47.388;8.538;2022-12-07T14:06:57;8.20;99.90
3542;DHT22;1785;47.388;8.538;2022-12-07T14:09:25;7.90;99.90
3542;DHT22;1785;47.388;8.538;2022-12-07T14:11:53;7.70;99.90
3542;DHT22;1785;47.388;8.538;2022-12-07T14:14:25;7.50;99.90
3542;DHT22;1785;47.388;8.538;2022-12-07T14:16:57;7.50;99.90
3542;DHT22;1785;47.388;8.538;2022-12-07T14:19:46;7.50;99.90
3542;DHT22;1785;47.388;8.538;2022-12-07T14:22:24;7.60;99.90
3542;DHT22;1785;47.388;8.538;2022-12-07T14:24:51;7.70;99.90
3542;DHT22;1785;47.388;8.538;2022-12-07T14:27:24;7.70;99.90
3542;DHT22;1785;47.388;8.538;2022-12-07T14:29:56;7.70;99.90
3542;DHT22;1785;47.388;8.538;2022-12-07T14:32:25;7.50;99.90
3542;DHT22;1785;47.388;8.538;2022-12-07T14:34:58;7.60;99.90
3542;DHT22;1785;47.388;8.538;2022-12-07T14:37:26;7.50;99.90
3542;DHT22;1785;47.388;8.538;2022-12-07T14:39:53;7.50;99.90
3542;DHT22;1785;47.388;8.538;2022-12-07T14:42:20;7.50;99.90
3542;DHT22;1785;47.388;8.538;2022-12-07T14:44:48;7.50;99.90
3542;DHT22;1785;47.388;8.538;2022-12-07T14:47:15;7.50;99.90
3542;DHT22;1785;47.388;8.538;2022-12-07T14:49:41;7.60;99.90
3542;DHT22;1785;47.388;8.538;2022-12-07T14:52:13;7.60;99.90
3542;DHT22;1785;47.388;8.538;2022-12-07T14:54:41;7.70;99.90
3542;DHT22;1785;47.388;8.538;2022-12-07T14:57:08;7.70;99.90
3542;DHT22;1785;47.388;8.538;2022-12-07T14:59:34;7.70;99.90
3542;DHT22;1785;47.388;8.538;2022-12-07T15:02:01;7.80;99.90
3542;DHT22;1785;47.388;8.538;2022-12-07T15:04:28;7.70;99.90
3542;DHT22;1785;47.388;8.538;2022-12-07T15:06:56;7.80;99.90
3542;DHT22;1785;47.388;8.538;2022-12-07T15:09:23;7.80;99.90
3542;DHT22;1785;47.388;8.538;2022-12-07T15:11:49;7.80;99.90
3542;DHT22;1785;47.388;8.538;2022-12-07T15:14:16;7.80;99.90
3542;DHT22;1785;47.388;8.538;2022-12-07T15:16:43;7.90;99.90
3542;DHT22;1785;47.388;8.538;2022-12-07T15:19:12;7.80;99.90
3542;DHT22;1785;47.388;8.538;2022-12-07T15:21:40;7.60;99.90
3542;DHT22;1785;47.388;8.538;2022-12-07T15:24:08;7.30;99.90
3542;DHT22;1785;47.388;8.538;2022-12-07T15:26:34;7.30;99.90
3542;DHT22;1785;47.388;8.538;2022-12-07T15:29:01;7.40;99.90
3542;DHT22;1785;47.388;8.538;2022-12-07T15:31:28;7.50;99.90
3542;DHT22;1785;47.388;8.538;2022-12-07T15:33:54;7.60;99.90
3542;DHT22;1785;47.388;8.538;2022-12-07T15:36:22;7.50;99.90
3542;DHT22;1785;47.388;8.538;2022-12-07T15:38:50;7.50;99.90
3542;DHT22;1785;47.388;8.538;2022-12-07T15:41:17;7.50;99.90
3542;DHT22;1785;47.388;8.538;2022-12-07T15:43:44;7.50;99.90
3542;DHT22;1785;47.388;8.538;2022-12-07T15:46:32;7.20;99.90
3542;DHT22;1785;47.388;8.538;2022-12-07T15:49:00;7.30;99.90
3542;DHT22;1785;47.388;8.538;2022-12-07T15:51:26;7.40;99.90
3542;DHT22;1785;47.388;8.538;2022-12-07T15:53:54;7.50;99.90
3542;DHT22;1785;47.388;8.538;2022-12-07T15:56:20;7.60;99.90
3542;DHT22;1785;47.388;8.538;2022-12-07T15:58:47;7.50;99.90
3542;DHT22;1785;47.388;8.538;2022-12-07T16:01:15;7.60;99.90
3542;DHT22;1785;47.388;8.538;2022-12-07T16:03:42;7.60;99.90
3542;DHT22;1785;47.388;8.538;2022-12-07T16:06:09;7.60;99.90
3542;DHT22;1785;47.388;8.538;2022-12-07T16:08:36;7.50;99.90
3542;DHT22;1785;47.388;8.538;2022-12-07T16:11:06;7.50;99.90
3542;DHT22;1785;47.388;8.538;2022-12-07T16:13:33;7.50;99.90
3542;DHT22;1785;47.388;8.538;2022-12-07T16:16:02;7.50;99.90
3542;DHT22;1785;47.388;8.538;2022-12-07T16:18:29;7.60;99.90
3542;DHT22;1785;47.388;8.538;2022-12-07T16:20:55;7.60;99.90
3542;DHT22;1785;47.388;8.538;2022-12-07T16:23:23;7.50;99.90
3542;DHT22;1785;47.388;8.538;2022-12-07T16:25:49;7.50;99.90
3542;DHT22;1785;47.388;8.538;2022-12-07T16:28:17;7.50;99.90
3542;DHT22;1785;47.388;8.538;2022-12-07T16:30:44;7.50;99.90
3542;DHT22;1785;47.388;8.538;2022-12-07T16:33:10;7.40;99.90
3542;DHT22;1785;47.388;8.538;2022-12-07T16:35:38;7.50;99.90
3542;DHT22;1785;47.388;8.538;2022-12-07T16:38:06;7.50;99.90
3542;DHT22;1785;47.388;8.538;2022-12-07T16:40:33;7.50;99.90
3542;DHT22;1785;47.388;8.538;2022-12-07T16:42:59;7.50;99.90
3542;DHT22;1785;47.388;8.538;2022-12-07T16:45:26;7.60;99.90